sensor_id;sensor_type;location;lat;lon;timestamp;P1;durP1;ratioP1;P2;durP2;ratioP2
20593;SDS011;10455;48.732;10.266;2022-09-12T00:00:07;30.63;;;22.70;;
20593;SDS011;10455;48.732;10.266;2022-09-12T00:05:10;31.43;;;23.23;;
20593;SDS011;10455;48.732;10.266;2022-09-12T00:10:13;25.20;;;20.37;;
20593;SDS011;10455;48.732;10.266;2022-09-12T00:15:16;32.30;;;24.17;;
20593;SDS011;10455;48.732;10.266;2022-09-12T00:20:18;27.80;;;21.73;;
20593;SDS011;10455;48.732;10.266;2022-09-12T00:25:22;24.20;;;21.57;;
20593;SDS011;10455;48.732;10.266;2022-09-12T00:30:24;33.67;;;23.37;;
20593;SDS011;10455;48.732;10.266;2022-09-12T00:35:26;78.23;;;32.53;;
20593;SDS011;10455;48.732;10.266;2022-09-12T00:40:30;34.43;;;25.77;;
20593;SDS011;10455;48.732;10.266;2022-09-12T00:45:32;30.73;;;23.00;;
20593;SDS011;10455;48.732;10.266;2022-09-12T00:50:34;31.03;;;22.37;;
20593;SDS011;10455;48.732;10.266;2022-09-12T00:55:39;31.93;;;23.20;;
20593;SDS011;10455;48.732;10.266;2022-09-12T01:00:44;33.43;;;23.80;;
20593;SDS011;10455;48.732;10.266;2022-09-12T01:05:48;24.43;;;20.70;;
20593;SDS011;10455;48.732;10.266;2022-09-12T01:11:00;21.10;;;17.43;;
20593;SDS011;10455;48.732;10.266;2022-09-12T01:16:03;45.97;;;27.13;;
20593;SDS011;10455;48.732;10.266;2022-09-12T01:21:17;69.63;;;32.53;;
20593;SDS011;10455;48.732;10.266;2022-09-12T01:26:34;37.73;;;24.30;;
20593;SDS011;10455;48.732;10.266;2022-09-12T01:32:06;68.43;;;24.57;;
20593;SDS011;10455;48.732;10.266;2022-09-12T01:37:16;163.70;;;36.37;;
20593;SDS011;10455;48.732;10.266;2022-09-12T01:42:27;83.90;;;30.83;;
20593;SDS011;10455;48.732;10.266;2022-09-12T01:47:38;83.40;;;31.70;;
20593;SDS011;10455;48.732;10.266;2022-09-12T01:52:42;80.60;;;34.43;;
20593;SDS011;10455;48.732;10.266;2022-09-12T01:57:51;68.80;;;29.53;;
20593;SDS011;10455;48.732;10.266;2022-09-12T02:02:59;69.23;;;30.23;;
20593;SDS011;10455;48.732;10.266;2022-09-12T02:08:05;32.57;;;21.60;;
20593;SDS011;10455;48.732;10.266;2022-09-12T02:13:12;31.20;;;23.63;;
20593;SDS011;10455;48.732;10.266;2022-09-12T02:18:20;47.13;;;27.23;;
20593;SDS011;10455;48.732;10.266;2022-09-12T02:23:28;27.23;;;20.93;;
20593;SDS011;10455;48.732;10.266;2022-09-12T02:28:32;43.17;;;25.13;;
20593;SDS011;10455;48.732;10.266;2022-09-12T02:33:41;87.30;;;32.00;;
20593;SDS011;10455;48.732;10.266;2022-09-12T02:38:50;40.50;;;24.17;;
20593;SDS011;10455;48.732;10.266;2022-09-12T02:43:53;44.70;;;24.00;;
20593;SDS011;10455;48.732;10.266;2022-09-12T02:48:56;39.80;;;24.10;;
20593;SDS011;10455;48.732;10.266;2022-09-12T02:53:59;66.40;;;28.60;;
20593;SDS011;10455;48.732;10.266;2022-09-12T02:59:03;60.60;;;27.50;;
20593;SDS011;10455;48.732;10.266;2022-09-12T03:04:21;77.30;;;26.87;;
20593;SDS011;10455;48.732;10.266;2022-09-12T03:09:36;84.70;;;29.50;;
20593;SDS011;10455;48.732;10.266;2022-09-12T03:14:53;78.93;;;32.37;;
20593;SDS011;10455;48.732;10.266;2022-09-12T03:20:12;61.20;;;27.10;;
20593;SDS011;10455;48.732;10.266;2022-09-12T03:25:18;70.53;;;30.73;;
20593;SDS011;10455;48.732;10.266;2022-09-12T03:30:24;49.03;;;27.27;;
20593;SDS011;10455;48.732;10.266;2022-09-12T03:35:28;70.87;;;26.23;;
20593;SDS011;10455;48.732;10.266;2022-09-12T03:40:30;36.10;;;22.83;;
20593;SDS011;10455;48.732;10.266;2022-09-12T03:45:32;67.10;;;30.17;;
20593;SDS011;10455;48.732;10.266;2022-09-12T03:50:36;56.00;;;25.77;;
20593;SDS011;10455;48.732;10.266;2022-09-12T03:55:38;63.33;;;29.00;;
20593;SDS011;10455;48.732;10.266;2022-09-12T04:00:40;57.50;;;27.70;;
20593;SDS011;10455;48.732;10.266;2022-09-12T04:05:44;50.83;;;26.43;;
20593;SDS011;10455;48.732;10.266;2022-09-12T04:10:47;63.50;;;25.57;;
20593;SDS011;10455;48.732;10.266;2022-09-12T04:15:54;48.43;;;25.73;;
20593;SDS011;10455;48.732;10.266;2022-09-12T04:21:00;66.20;;;27.03;;
20593;SDS011;10455;48.732;10.266;2022-09-12T04:26:04;74.57;;;27.70;;
20593;SDS011;10455;48.732;10.266;2022-09-12T04:31:07;157.33;;;37.03;;
20593;SDS011;10455;48.732;10.266;2022-09-12T04:36:13;111.30;;;32.70;;
20593;SDS011;10455;48.732;10.266;2022-09-12T04:41:17;85.90;;;32.83;;
20593;SDS011;10455;48.732;10.266;2022-09-12T04:46:21;38.27;;;21.50;;
20593;SDS011;10455;48.732;10.266;2022-09-12T04:51:26;50.80;;;26.23;;
20593;SDS011;10455;48.732;10.266;2022-09-12T04:56:30;56.53;;;28.17;;
20593;SDS011;10455;48.732;10.266;2022-09-12T05:01:33;42.87;;;25.87;;
20593;SDS011;10455;48.732;10.266;2022-09-12T05:06:37;49.20;;;24.40;;
20593;SDS011;10455;48.732;10.266;2022-09-12T05:11:41;34.27;;;21.27;;
20593;SDS011;10455;48.732;10.266;2022-09-12T05:16:44;45.27;;;24.43;;
20593;SDS011;10455;48.732;10.266;2022-09-12T05:21:48;40.80;;;23.83;;
20593;SDS011;10455;48.732;10.266;2022-09-12T05:26:50;46.60;;;26.13;;
20593;SDS011;10455;48.732;10.266;2022-09-12T05:31:52;40.60;;;22.67;;
20593;SDS011;10455;48.732;10.266;2022-09-12T05:36:56;62.57;;;38.03;;
20593;SDS011;10455;48.732;10.266;2022-09-12T05:41:58;90.60;;;52.77;;
20593;SDS011;10455;48.732;10.266;2022-09-12T05:47:00;154.73;;;43.57;;
20593;SDS011;10455;48.732;10.266;2022-09-12T05:52:03;34.13;;;27.37;;
20593;SDS011;10455;48.732;10.266;2022-09-12T05:57:06;18.67;;;16.50;;
20593;SDS011;10455;48.732;10.266;2022-09-12T06:02:08;17.20;;;15.53;;
20593;SDS011;10455;48.732;10.266;2022-09-12T06:07:13;15.80;;;14.50;;
20593;SDS011;10455;48.732;10.266;2022-09-12T06:12:15;12.80;;;11.80;;
20593;SDS011;10455;48.732;10.266;2022-09-12T06:17:17;10.15;;;9.38;;
20593;SDS011;10455;48.732;10.266;2022-09-12T06:22:21;9.48;;;8.70;;
20593;SDS011;10455;48.732;10.266;2022-09-12T06:27:23;9.63;;;8.93;;
20593;SDS011;10455;48.732;10.266;2022-09-12T06:32:28;9.65;;;8.95;;
20593;SDS011;10455;48.732;10.266;2022-09-12T06:37:32;9.52;;;8.82;;
20593;SDS011;10455;48.732;10.266;2022-09-12T06:42:34;8.55;;;7.95;;
20593;SDS011;10455;48.732;10.266;2022-09-12T06:47:36;8.65;;;7.95;;
20593;SDS011;10455;48.732;10.266;2022-09-12T06:52:39;13.55;;;8.85;;
20593;SDS011;10455;48.732;10.266;2022-09-12T06:57:41;6.25;;;5.85;;
20593;SDS011;10455;48.732;10.266;2022-09-12T07:02:44;8.40;;;5.60;;
20593;SDS011;10455;48.732;10.266;2022-09-12T07:07:47;4.50;;;4.20;;
20593;SDS011;10455;48.732;10.266;2022-09-12T07:12:50;3.50;;;3.30;;
20593;SDS011;10455;48.732;10.266;2022-09-12T07:17:52;3.10;;;2.90;;
20593;SDS011;10455;48.732;10.266;2022-09-12T07:22:56;3.22;;;3.03;;
20593;SDS011;10455;48.732;10.266;2022-09-12T07:27:58;2.63;;;2.42;;
20593;SDS011;10455;48.732;10.266;2022-09-12T07:33:01;3.20;;;3.00;;
20593;SDS011;10455;48.732;10.266;2022-09-12T07:38:04;2.80;;;2.70;;
20593;SDS011;10455;48.732;10.266;2022-09-12T07:43:07;2.95;;;2.60;;
20593;SDS011;10455;48.732;10.266;2022-09-12T07:48:09;2.88;;;2.60;;
20593;SDS011;10455;48.732;10.266;2022-09-12T07:53:12;3.55;;;2.90;;
20593;SDS011;10455;48.732;10.266;2022-09-12T07:58:15;3.20;;;3.00;;
20593;SDS011;10455;48.732;10.266;2022-09-12T08:03:17;3.05;;;2.85;;
20593;SDS011;10455;48.732;10.266;2022-09-12T08:08:21;3.10;;;2.90;;
20593;SDS011;10455;48.732;10.266;2022-09-12T08:13:23;2.70;;;2.50;;
20593;SDS011;10455;48.732;10.266;2022-09-12T08:18:25;2.83;;;2.30;;
20593;SDS011;10455;48.732;10.266;2022-09-12T08:23:31;2.63;;;2.42;;
20593;SDS011;10455;48.732;10.266;2022-09-12T08:28:34;2.60;;;2.40;;
20593;SDS011;10455;48.732;10.266;2022-09-12T08:33:37;2.30;;;2.10;;
20593;SDS011;10455;48.732;10.266;2022-09-12T08:38:42;2.50;;;2.30;;
20593;SDS011;10455;48.732;10.266;2022-09-12T08:49:38;3.25;;;2.80;;
20593;SDS011;10455;48.732;10.266;2022-09-12T08:54:49;3.10;;;2.90;;
20593;SDS011;10455;48.732;10.266;2022-09-12T08:59:51;3.83;;;3.40;;
20593;SDS011;10455;48.732;10.266;2022-09-12T09:04:55;3.08;;;2.88;;
20593;SDS011;10455;48.732;10.266;2022-09-12T09:10:09;3.78;;;3.47;;
20593;SDS011;10455;48.732;10.266;2022-09-12T09:20:43;2.95;;;2.70;;
20593;SDS011;10455;48.732;10.266;2022-09-12T09:25:52;2.80;;;2.60;;
20593;SDS011;10455;48.732;10.266;2022-09-12T09:31:01;2.97;;;2.72;;
20593;SDS011;10455;48.732;10.266;2022-09-12T09:36:06;2.88;;;2.67;;
20593;SDS011;10455;48.732;10.266;2022-09-12T09:41:32;3.58;;;2.90;;
20593;SDS011;10455;48.732;10.266;2022-09-12T09:46:40;3.80;;;2.97;;
20593;SDS011;10455;48.732;10.266;2022-09-12T09:51:42;2.90;;;2.70;;
20593;SDS011;10455;48.732;10.266;2022-09-12T09:56:46;3.88;;;3.00;;
20593;SDS011;10455;48.732;10.266;2022-09-12T10:01:50;2.58;;;2.38;;
20593;SDS011;10455;48.732;10.266;2022-09-12T10:06:55;2.85;;;2.63;;
20593;SDS011;10455;48.732;10.266;2022-09-12T10:12:00;2.30;;;2.20;;
20593;SDS011;10455;48.732;10.266;2022-09-12T10:17:20;3.80;;;2.50;;
20593;SDS011;10455;48.732;10.266;2022-09-12T10:22:26;2.55;;;2.40;;
20593;SDS011;10455;48.732;10.266;2022-09-12T10:27:31;2.95;;;2.53;;
20593;SDS011;10455;48.732;10.266;2022-09-12T10:32:35;2.53;;;2.33;;
20593;SDS011;10455;48.732;10.266;2022-09-12T10:37:41;2.58;;;2.38;;
20593;SDS011;10455;48.732;10.266;2022-09-12T10:42:54;2.58;;;2.28;;
20593;SDS011;10455;48.732;10.266;2022-09-12T10:47:59;3.05;;;2.80;;
20593;SDS011;10455;48.732;10.266;2022-09-12T10:53:13;2.50;;;2.30;;
20593;SDS011;10455;48.732;10.266;2022-09-12T10:58:41;2.90;;;2.70;;
20593;SDS011;10455;48.732;10.266;2022-09-12T11:03:58;3.28;;;3.08;;
20593;SDS011;10455;48.732;10.266;2022-09-12T11:09:15;2.40;;;2.20;;
20593;SDS011;10455;48.732;10.266;2022-09-12T11:14:34;2.80;;;2.60;;
20593;SDS011;10455;48.732;10.266;2022-09-12T11:19:50;2.65;;;2.45;;
20593;SDS011;10455;48.732;10.266;2022-09-12T11:25:22;2.22;;;2.10;;
20593;SDS011;10455;48.732;10.266;2022-09-12T11:30:33;2.20;;;2.00;;
20593;SDS011;10455;48.732;10.266;2022-09-12T11:35:41;3.30;;;2.30;;
20593;SDS011;10455;48.732;10.266;2022-09-12T11:40:48;2.83;;;2.63;;
20593;SDS011;10455;48.732;10.266;2022-09-12T11:45:56;2.38;;;2.20;;
20593;SDS011;10455;48.732;10.266;2022-09-12T11:51:05;3.00;;;2.80;;
20593;SDS011;10455;48.732;10.266;2022-09-12T11:56:18;3.20;;;2.90;;
20593;SDS011;10455;48.732;10.266;2022-09-12T12:01:22;3.78;;;3.53;;
20593;SDS011;10455;48.732;10.266;2022-09-12T12:06:30;3.00;;;2.80;;
20593;SDS011;10455;48.732;10.266;2022-09-12T12:11:36;3.17;;;2.92;;
20593;SDS011;10455;48.732;10.266;2022-09-12T12:16:42;2.25;;;2.15;;
20593;SDS011;10455;48.732;10.266;2022-09-12T12:21:44;2.30;;;2.10;;
20593;SDS011;10455;48.732;10.266;2022-09-12T12:26:55;2.60;;;2.40;;
20593;SDS011;10455;48.732;10.266;2022-09-12T12:48:42;2.60;;;2.40;;
20593;SDS011;10455;48.732;10.266;2022-09-12T12:53:48;4.70;;;2.60;;
20593;SDS011;10455;48.732;10.266;2022-09-12T12:58:55;2.63;;;2.42;;
20593;SDS011;10455;48.732;10.266;2022-09-12T13:04:02;3.10;;;2.85;;
20593;SDS011;10455;48.732;10.266;2022-09-12T13:09:18;2.33;;;2.17;;
20593;SDS011;10455;48.732;10.266;2022-09-12T13:19:52;2.85;;;2.55;;
20593;SDS011;10455;48.732;10.266;2022-09-12T13:25:15;3.00;;;2.50;;
20593;SDS011;10455;48.732;10.266;2022-09-12T13:30:20;2.50;;;2.30;;
20593;SDS011;10455;48.732;10.266;2022-09-12T13:35:25;4.43;;;2.72;;
20593;SDS011;10455;48.732;10.266;2022-09-12T13:40:40;1.83;;;1.73;;
20593;SDS011;10455;48.732;10.266;2022-09-12T13:45:55;2.80;;;2.60;;
20593;SDS011;10455;48.732;10.266;2022-09-12T13:50:59;2.30;;;2.10;;
20593;SDS011;10455;48.732;10.266;2022-09-12T13:56:03;2.05;;;1.95;;
20593;SDS011;10455;48.732;10.266;2022-09-12T14:01:06;2.30;;;2.10;;
20593;SDS011;10455;48.732;10.266;2022-09-12T14:06:14;1.70;;;1.60;;
20593;SDS011;10455;48.732;10.266;2022-09-12T14:11:20;1.80;;;1.70;;
20593;SDS011;10455;48.732;10.266;2022-09-12T14:16:25;3.00;;;2.03;;
20593;SDS011;10455;48.732;10.266;2022-09-12T14:21:31;2.83;;;1.80;;
20593;SDS011;10455;48.732;10.266;2022-09-12T14:26:35;2.03;;;1.80;;
20593;SDS011;10455;48.732;10.266;2022-09-12T14:31:39;1.75;;;1.65;;
20593;SDS011;10455;48.732;10.266;2022-09-12T14:36:46;1.73;;;1.63;;
20593;SDS011;10455;48.732;10.266;2022-09-12T14:41:50;2.10;;;2.00;;
20593;SDS011;10455;48.732;10.266;2022-09-12T14:47:09;3.20;;;2.00;;
20593;SDS011;10455;48.732;10.266;2022-09-12T14:52:22;2.50;;;2.30;;
20593;SDS011;10455;48.732;10.266;2022-09-12T14:57:30;3.38;;;2.42;;
20593;SDS011;10455;48.732;10.266;2022-09-12T15:02:38;2.83;;;2.33;;
20593;SDS011;10455;48.732;10.266;2022-09-12T15:07:43;2.50;;;1.98;;
20593;SDS011;10455;48.732;10.266;2022-09-12T15:13:02;2.50;;;2.30;;
20593;SDS011;10455;48.732;10.266;2022-09-12T15:18:15;2.33;;;2.13;;
20593;SDS011;10455;48.732;10.266;2022-09-12T15:23:30;3.17;;;1.85;;
20593;SDS011;10455;48.732;10.266;2022-09-12T15:28:37;2.05;;;1.95;;
20593;SDS011;10455;48.732;10.266;2022-09-12T15:33:39;2.10;;;1.90;;
20593;SDS011;10455;48.732;10.266;2022-09-12T15:38:42;3.40;;;2.50;;
20593;SDS011;10455;48.732;10.266;2022-09-12T15:43:47;3.00;;;2.60;;
20593;SDS011;10455;48.732;10.266;2022-09-12T15:48:50;3.17;;;2.88;;
20593;SDS011;10455;48.732;10.266;2022-09-12T15:53:56;3.20;;;2.65;;
20593;SDS011;10455;48.732;10.266;2022-09-12T15:58:59;3.03;;;2.70;;
20593;SDS011;10455;48.732;10.266;2022-09-12T16:04:02;3.80;;;2.55;;
20593;SDS011;10455;48.732;10.266;2022-09-12T16:09:05;3.35;;;2.63;;
20593;SDS011;10455;48.732;10.266;2022-09-12T16:14:08;2.90;;;2.70;;
20593;SDS011;10455;48.732;10.266;2022-09-12T16:19:13;3.42;;;3.13;;
20593;SDS011;10455;48.732;10.266;2022-09-12T16:24:17;2.95;;;2.75;;
20593;SDS011;10455;48.732;10.266;2022-09-12T16:29:19;3.20;;;2.90;;
20593;SDS011;10455;48.732;10.266;2022-09-12T16:34:21;3.33;;;3.10;;
20593;SDS011;10455;48.732;10.266;2022-09-12T16:39:24;2.90;;;2.70;;
20593;SDS011;10455;48.732;10.266;2022-09-12T16:44:26;5.28;;;3.50;;
20593;SDS011;10455;48.732;10.266;2022-09-12T16:49:29;3.78;;;3.38;;
20593;SDS011;10455;48.732;10.266;2022-09-12T16:54:32;3.20;;;2.90;;
20593;SDS011;10455;48.732;10.266;2022-09-12T16:59:34;3.90;;;2.90;;
20593;SDS011;10455;48.732;10.266;2022-09-12T17:04:37;3.55;;;3.30;;
20593;SDS011;10455;48.732;10.266;2022-09-12T17:09:40;4.38;;;3.40;;
20593;SDS011;10455;48.732;10.266;2022-09-12T17:14:43;3.55;;;3.25;;
20593;SDS011;10455;48.732;10.266;2022-09-12T17:19:45;3.67;;;3.22;;
20593;SDS011;10455;48.732;10.266;2022-09-12T17:24:49;4.18;;;3.78;;
20593;SDS011;10455;48.732;10.266;2022-09-12T17:29:51;3.58;;;3.28;;
20593;SDS011;10455;48.732;10.266;2022-09-12T17:34:53;3.58;;;3.30;;
20593;SDS011;10455;48.732;10.266;2022-09-12T17:39:57;3.88;;;3.53;;
20593;SDS011;10455;48.732;10.266;2022-09-12T17:44:59;3.90;;;3.60;;
20593;SDS011;10455;48.732;10.266;2022-09-12T17:50:01;4.43;;;4.05;;
20593;SDS011;10455;48.732;10.266;2022-09-12T17:55:05;4.72;;;4.07;;
20593;SDS011;10455;48.732;10.266;2022-09-12T18:00:07;4.38;;;4.07;;
20593;SDS011;10455;48.732;10.266;2022-09-12T18:05:11;4.38;;;4.07;;
20593;SDS011;10455;48.732;10.266;2022-09-12T18:10:14;5.15;;;4.75;;
20593;SDS011;10455;48.732;10.266;2022-09-12T18:15:17;4.97;;;4.57;;
20593;SDS011;10455;48.732;10.266;2022-09-12T18:20:19;7.00;;;5.10;;
20593;SDS011;10455;48.732;10.266;2022-09-12T18:25:22;8.30;;;5.60;;
20593;SDS011;10455;48.732;10.266;2022-09-12T18:30:25;6.17;;;5.23;;
20593;SDS011;10455;48.732;10.266;2022-09-12T18:35:27;5.90;;;5.40;;
20593;SDS011;10455;48.732;10.266;2022-09-12T18:40:30;6.17;;;5.67;;
20593;SDS011;10455;48.732;10.266;2022-09-12T18:45:33;5.77;;;5.27;;
20593;SDS011;10455;48.732;10.266;2022-09-12T18:50:35;6.93;;;6.23;;
20593;SDS011;10455;48.732;10.266;2022-09-12T18:55:39;6.77;;;6.20;;
20593;SDS011;10455;48.732;10.266;2022-09-12T19:00:41;7.20;;;6.50;;
20593;SDS011;10455;48.732;10.266;2022-09-12T19:05:47;7.60;;;6.47;;
20593;SDS011;10455;48.732;10.266;2022-09-12T19:10:56;8.10;;;7.27;;
20593;SDS011;10455;48.732;10.266;2022-09-12T19:15:58;7.77;;;7.07;;
20593;SDS011;10455;48.732;10.266;2022-09-12T19:21:01;10.57;;;9.27;;
20593;SDS011;10455;48.732;10.266;2022-09-12T19:26:06;9.57;;;8.03;;
20593;SDS011;10455;48.732;10.266;2022-09-12T19:31:11;8.40;;;7.70;;
20593;SDS011;10455;48.732;10.266;2022-09-12T19:36:16;8.07;;;7.37;;
20593;SDS011;10455;48.732;10.266;2022-09-12T19:41:21;11.60;;;8.80;;
20593;SDS011;10455;48.732;10.266;2022-09-12T19:46:23;8.83;;;8.07;;
20593;SDS011;10455;48.732;10.266;2022-09-12T19:51:26;8.57;;;7.80;;
20593;SDS011;10455;48.732;10.266;2022-09-12T19:56:30;10.43;;;8.00;;
20593;SDS011;10455;48.732;10.266;2022-09-12T20:01:32;9.60;;;8.70;;
20593;SDS011;10455;48.732;10.266;2022-09-12T20:06:36;10.80;;;9.47;;
20593;SDS011;10455;48.732;10.266;2022-09-12T20:11:39;11.17;;;9.60;;
20593;SDS011;10455;48.732;10.266;2022-09-12T20:16:41;9.40;;;8.57;;
20593;SDS011;10455;48.732;10.266;2022-09-12T20:21:44;11.03;;;9.60;;
20593;SDS011;10455;48.732;10.266;2022-09-12T20:26:48;12.33;;;11.20;;
20593;SDS011;10455;48.732;10.266;2022-09-12T20:31:50;10.10;;;8.90;;
20593;SDS011;10455;48.732;10.266;2022-09-12T20:36:52;9.13;;;8.17;;
20593;SDS011;10455;48.732;10.266;2022-09-12T20:41:56;10.37;;;8.83;;
20593;SDS011;10455;48.732;10.266;2022-09-12T20:46:58;9.70;;;8.70;;
20593;SDS011;10455;48.732;10.266;2022-09-12T20:52:00;10.67;;;9.67;;
20593;SDS011;10455;48.732;10.266;2022-09-12T20:57:05;11.57;;;10.53;;
20593;SDS011;10455;48.732;10.266;2022-09-12T21:02:08;13.50;;;11.90;;
20593;SDS011;10455;48.732;10.266;2022-09-12T21:07:10;11.27;;;10.10;;
20593;SDS011;10455;48.732;10.266;2022-09-12T21:12:14;8.90;;;8.10;;
20593;SDS011;10455;48.732;10.266;2022-09-12T21:17:16;10.33;;;9.43;;
20593;SDS011;10455;48.732;10.266;2022-09-12T21:22:18;12.00;;;10.80;;
20593;SDS011;10455;48.732;10.266;2022-09-12T21:27:21;10.50;;;9.50;;
20593;SDS011;10455;48.732;10.266;2022-09-12T21:32:23;12.73;;;11.50;;
20593;SDS011;10455;48.732;10.266;2022-09-12T21:37:26;10.17;;;9.27;;
20593;SDS011;10455;48.732;10.266;2022-09-12T21:42:29;10.97;;;9.30;;
20593;SDS011;10455;48.732;10.266;2022-09-12T21:47:32;10.50;;;9.50;;
20593;SDS011;10455;48.732;10.266;2022-09-12T21:52:34;11.87;;;10.77;;
20593;SDS011;10455;48.732;10.266;2022-09-12T21:57:38;12.57;;;11.33;;
20593;SDS011;10455;48.732;10.266;2022-09-12T22:02:40;12.37;;;11.27;;
20593;SDS011;10455;48.732;10.266;2022-09-12T22:07:42;13.17;;;11.77;;
20593;SDS011;10455;48.732;10.266;2022-09-12T22:12:46;12.30;;;11.07;;
20593;SDS011;10455;48.732;10.266;2022-09-12T22:17:48;14.23;;;12.83;;
20593;SDS011;10455;48.732;10.266;2022-09-12T22:22:50;15.17;;;13.40;;
20593;SDS011;10455;48.732;10.266;2022-09-12T22:28:11;12.10;;;11.00;;
20593;SDS011;10455;48.732;10.266;2022-09-12T22:33:13;13.63;;;12.43;;
20593;SDS011;10455;48.732;10.266;2022-09-12T22:38:15;13.50;;;12.17;;
20593;SDS011;10455;48.732;10.266;2022-09-12T22:43:19;13.40;;;12.10;;
20593;SDS011;10455;48.732;10.266;2022-09-12T22:48:21;13.60;;;12.30;;
20593;SDS011;10455;48.732;10.266;2022-09-12T22:53:23;15.03;;;13.53;;
20593;SDS011;10455;48.732;10.266;2022-09-12T22:58:27;12.33;;;11.00;;
20593;SDS011;10455;48.732;10.266;2022-09-12T23:03:29;12.30;;;11.10;;
20593;SDS011;10455;48.732;10.266;2022-09-12T23:08:32;14.07;;;12.67;;
20593;SDS011;10455;48.732;10.266;2022-09-12T23:13:36;13.43;;;12.13;;
20593;SDS011;10455;48.732;10.266;2022-09-12T23:18:39;12.47;;;11.33;;
20593;SDS011;10455;48.732;10.266;2022-09-12T23:23:41;14.20;;;12.93;;
20593;SDS011;10455;48.732;10.266;2022-09-12T23:28:47;16.73;;;14.93;;
20593;SDS011;10455;48.732;10.266;2022-09-12T23:33:52;13.50;;;12.17;;
20593;SDS011;10455;48.732;10.266;2022-09-12T23:38:54;15.87;;;14.20;;
20593;SDS011;10455;48.732;10.266;2022-09-12T23:43:58;13.93;;;12.63;;
20593;SDS011;10455;48.732;10.266;2022-09-12T23:49:00;17.23;;;15.43;;
20593;SDS011;10455;48.732;10.266;2022-09-12T23:54:03;20.77;;;18.67;;
20593;SDS011;10455;48.732;10.266;2022-09-12T23:59:06;16.63;;;14.10;;
